createdAt,value
2019-05-18T00:00:57.179Z,24.90
2019-05-18T00:01:57.187Z,25.30
2019-05-18T00:02:57.186Z,30.60
2019-05-18T00:03:57.199Z,29.40
2019-05-18T00:04:57.204Z,25.40
2019-05-18T00:05:57.223Z,24.90
2019-05-18T00:06:57.216Z,24.40
2019-05-18T00:07:57.225Z,22.40
2019-05-18T00:08:57.237Z,25.50
2019-05-18T00:09:57.247Z,24.00
2019-05-18T00:10:57.261Z,27.20
2019-05-18T00:11:57.260Z,27.00
2019-05-18T00:12:57.261Z,31.70
2019-05-18T00:13:57.270Z,28.40
2019-05-18T00:14:57.278Z,25.90
2019-05-18T00:15:57.285Z,29.80
2019-05-18T00:16:57.289Z,31.50
2019-05-18T00:17:57.300Z,29.20
2019-05-18T00:18:57.304Z,26.20
2019-05-18T00:19:57.312Z,28.00
2019-05-18T00:20:57.334Z,27.60
2019-05-18T00:21:57.326Z,28.20
2019-05-18T00:22:57.337Z,27.90
2019-05-18T00:23:57.337Z,27.90
2019-05-18T00:24:57.345Z,27.70
2019-05-18T00:25:57.355Z,24.50
2019-05-18T00:26:57.419Z,27.50
2019-05-18T00:27:57.358Z,27.30
2019-05-18T00:28:57.371Z,24.70
2019-05-18T00:29:57.375Z,25.60
2019-05-18T00:30:57.381Z,23.90
2019-05-18T00:31:57.477Z,25.80
2019-05-18T00:32:57.398Z,27.10
2019-05-18T00:33:57.415Z,24.30
2019-05-18T00:34:57.536Z,26.00
2019-05-18T00:35:57.419Z,26.00
2019-05-18T00:36:57.446Z,25.60
2019-05-18T00:37:57.473Z,27.20
2019-05-18T00:38:57.451Z,25.30
2019-05-18T00:39:57.448Z,25.90
2019-05-18T00:40:57.453Z,24.90
2019-05-18T00:41:57.462Z,25.20
2019-05-18T00:42:57.464Z,27.00
2019-05-18T00:43:57.472Z,26.20
2019-05-18T00:44:57.488Z,26.60
2019-05-18T00:45:57.488Z,27.40
2019-05-18T00:46:57.489Z,26.10
2019-05-18T00:47:57.544Z,27.30
2019-05-18T00:48:57.503Z,25.20
2019-05-18T00:49:57.519Z,29.70
2019-05-18T00:50:57.522Z,29.90
2019-05-18T00:51:57.525Z,29.60
2019-05-18T00:52:57.540Z,31.60
2019-05-18T00:53:57.539Z,29.90
2019-05-18T00:54:57.549Z,27.60
2019-05-18T00:55:57.551Z,26.00
2019-05-18T00:56:57.572Z,28.00
2019-05-18T00:57:57.565Z,25.60
2019-05-18T00:58:57.574Z,24.90
2019-05-18T00:59:57.587Z,26.50
2019-05-18T01:00:57.589Z,26.30
2019-05-18T01:01:57.594Z,26.50
2019-05-18T01:02:57.616Z,27.30
2019-05-18T01:03:57.595Z,26.00
2019-05-18T01:04:57.606Z,26.40
2019-05-18T01:05:57.620Z,27.70
2019-05-18T01:06:57.619Z,27.10
2019-05-18T01:07:57.622Z,30.00
2019-05-18T01:08:57.631Z,33.40
2019-05-18T01:09:57.637Z,28.00
2019-05-18T01:10:57.650Z,28.40
2019-05-18T01:11:57.662Z,27.40
2019-05-18T01:12:57.656Z,31.60
2019-05-18T01:13:57.673Z,26.10
2019-05-18T01:14:57.673Z,26.00
2019-05-18T01:15:57.680Z,26.70
2019-05-18T01:16:57.693Z,27.20
2019-05-18T01:18:01.430Z,28.10
2019-05-18T01:18:57.707Z,31.50
2019-05-18T01:19:57.713Z,28.60
2019-05-18T01:20:57.719Z,28.70
2019-05-18T01:21:57.726Z,26.20
2019-05-18T01:22:57.729Z,28.40
2019-05-18T01:23:57.728Z,26.90
2019-05-18T01:24:57.748Z,25.90
2019-05-18T01:25:57.755Z,29.40
2019-05-18T01:26:57.759Z,31.10
2019-05-18T01:27:57.761Z,28.60
2019-05-18T01:28:57.832Z,27.10
2019-05-18T01:29:57.775Z,28.10
2019-05-18T01:30:57.779Z,27.20
2019-05-18T01:31:57.797Z,28.80
2019-05-18T01:32:57.798Z,28.80
2019-05-18T01:33:57.801Z,27.20
2019-05-18T01:34:57.811Z,28.00
2019-05-18T01:35:57.807Z,27.40
2019-05-18T01:36:57.825Z,29.60
2019-05-18T01:37:57.836Z,27.40
2019-05-18T01:38:57.895Z,25.70
2019-05-18T01:39:57.847Z,27.80
2019-05-18T01:40:57.859Z,25.60
2019-05-18T01:41:57.858Z,28.40
2019-05-18T01:42:57.860Z,27.30
2019-05-18T01:43:57.870Z,27.50
2019-05-18T01:44:57.875Z,28.00
2019-05-18T01:45:57.916Z,27.90
2019-05-18T01:46:57.879Z,26.90
2019-05-18T01:48:12.732Z,29.60
2019-05-18T01:48:58.022Z,28.60
2019-05-18T01:49:57.909Z,29.00
2019-05-18T01:50:57.915Z,27.20
2019-05-18T01:51:57.923Z,29.20
2019-05-18T01:52:57.927Z,28.40
2019-05-18T01:53:57.931Z,27.40
2019-05-18T01:54:57.937Z,27.70
2019-05-18T01:55:57.949Z,31.20
2019-05-18T01:56:57.949Z,29.90
2019-05-18T01:57:57.958Z,27.00
2019-05-18T01:58:57.966Z,30.20
2019-05-18T01:59:57.973Z,28.50
2019-05-18T02:00:57.978Z,27.50
2019-05-18T02:01:57.988Z,30.40
2019-05-18T02:02:57.987Z,27.70
2019-05-18T02:03:58.064Z,29.20
2019-05-18T02:04:58.005Z,27.80
2019-05-18T02:05:58.010Z,28.90
2019-05-18T02:06:58.020Z,28.60
2019-05-18T02:07:58.027Z,29.50
2019-05-18T02:08:58.040Z,31.30
2019-05-18T02:09:58.051Z,32.50
2019-05-18T02:10:58.093Z,29.60
2019-05-18T02:11:58.045Z,31.30
2019-05-18T02:12:58.054Z,31.40
2019-05-18T02:13:58.073Z,27.70
2019-05-18T02:14:58.077Z,28.70
2019-05-18T02:15:58.076Z,29.10
2019-05-18T02:16:58.082Z,29.10
2019-05-18T02:17:58.083Z,30.00
2019-05-18T02:18:58.094Z,27.60
2019-05-18T02:19:58.092Z,30.00
2019-05-18T02:20:58.109Z,28.80
2019-05-18T02:21:58.111Z,32.10
2019-05-18T02:22:58.120Z,29.50
2019-05-18T02:23:58.124Z,30.00
2019-05-18T02:24:58.125Z,32.80
2019-05-18T02:25:58.141Z,29.50
2019-05-18T02:26:58.269Z,29.90
2019-05-18T02:27:58.151Z,28.00
2019-05-18T02:28:58.147Z,29.30
2019-05-18T02:29:58.215Z,29.40
2019-05-18T02:30:58.165Z,29.80
2019-05-18T02:31:58.183Z,28.50
2019-05-18T02:32:58.192Z,29.40
2019-05-18T02:33:58.207Z,28.00
2019-05-18T02:34:58.195Z,28.80
2019-05-18T02:35:58.207Z,30.70
2019-05-18T02:36:58.214Z,29.30
2019-05-18T02:37:58.214Z,30.00
2019-05-18T02:38:58.225Z,28.60
2019-05-18T02:39:58.292Z,29.20
2019-05-18T02:40:58.237Z,30.50
2019-05-18T02:41:58.247Z,28.80
2019-05-18T02:42:58.250Z,29.10
2019-05-18T02:43:58.262Z,30.00
2019-05-18T02:44:58.260Z,31.70
2019-05-18T02:45:58.260Z,30.30
2019-05-18T02:46:58.284Z,28.80
2019-05-18T02:47:58.281Z,28.60
2019-05-18T02:48:58.286Z,28.90
2019-05-18T02:49:58.300Z,28.50
2019-05-18T02:50:58.300Z,29.60
2019-05-18T02:51:58.310Z,30.40
2019-05-18T02:52:58.321Z,30.90
2019-05-18T02:53:58.320Z,28.00
2019-05-18T02:54:58.336Z,26.30
2019-05-18T02:55:58.333Z,34.00
2019-05-18T02:56:58.333Z,29.60
2019-05-18T02:57:58.346Z,30.80
2019-05-18T02:58:58.343Z,27.90
2019-05-18T02:59:58.354Z,29.00
2019-05-18T03:00:58.356Z,30.80
2019-05-18T03:01:58.365Z,30.00
2019-05-18T03:02:58.375Z,31.20
2019-05-18T03:03:58.372Z,32.60
2019-05-18T03:04:58.414Z,31.90
2019-05-18T03:05:58.402Z,28.80
2019-05-18T03:06:58.399Z,29.00
2019-05-18T03:07:58.527Z,31.90
2019-05-18T03:08:58.410Z,34.10
2019-05-18T03:09:58.413Z,34.40
2019-05-18T03:10:58.414Z,30.00
2019-05-18T03:11:58.434Z,33.70
2019-05-18T03:12:58.428Z,39.70
2019-05-18T03:13:58.452Z,33.40
2019-05-18T03:14:58.438Z,33.00
2019-05-18T03:15:58.450Z,30.50
2019-05-18T03:16:58.474Z,31.20
2019-05-18T03:17:58.600Z,30.50
2019-05-18T03:19:08.107Z,31.80
2019-05-18T03:19:58.473Z,32.20
2019-05-18T03:20:58.506Z,31.90
2019-05-18T03:22:01.001Z,30.40
2019-05-18T03:22:58.493Z,30.70
2019-05-18T03:23:58.508Z,31.40
2019-05-18T03:24:58.502Z,31.80
2019-05-18T03:25:58.523Z,30.60
2019-05-18T03:26:58.518Z,33.20
2019-05-18T03:27:58.527Z,36.60
2019-05-18T03:28:58.525Z,34.90
2019-05-18T03:29:58.535Z,32.30
2019-05-18T03:30:58.667Z,32.10
2019-05-18T03:31:58.589Z,33.90
2019-05-18T03:32:58.551Z,32.40
2019-05-18T03:33:58.573Z,33.60
2019-05-18T03:34:58.587Z,30.80
2019-05-18T03:35:58.576Z,32.30
2019-05-18T03:36:58.575Z,31.10
2019-05-18T03:37:58.584Z,33.30
2019-05-18T03:38:58.590Z,29.70
2019-05-18T03:39:58.591Z,32.80
2019-05-18T03:40:58.601Z,33.30
2019-05-18T03:41:58.617Z,34.00
2019-05-18T03:42:58.615Z,31.90
2019-05-18T03:43:58.616Z,30.50
2019-05-18T03:44:58.624Z,33.70
2019-05-18T03:45:58.635Z,32.70
2019-05-18T03:46:58.637Z,32.20
2019-05-18T03:47:58.643Z,31.40
2019-05-18T03:48:58.651Z,35.00
2019-05-18T03:49:58.655Z,34.20
2019-05-18T03:50:58.663Z,33.60
2019-05-18T03:51:58.668Z,34.60
2019-05-18T03:52:58.676Z,33.10
2019-05-18T03:53:58.680Z,33.10
2019-05-18T03:54:58.687Z,32.70
2019-05-18T03:55:58.695Z,33.60
2019-05-18T03:56:58.699Z,33.30
2019-05-18T03:57:58.703Z,31.00
2019-05-18T03:58:58.851Z,35.10
2019-05-18T03:59:58.719Z,33.80
2019-05-18T04:00:58.725Z,34.40
2019-05-18T04:01:58.736Z,32.20
2019-05-18T04:02:58.731Z,35.60
2019-05-18T04:03:58.741Z,33.70
2019-05-18T04:04:58.748Z,33.20
2019-05-18T04:05:58.757Z,34.50
2019-05-18T04:06:58.760Z,30.50
2019-05-18T04:07:58.771Z,37.10
2019-05-18T04:08:58.765Z,33.50
2019-05-18T04:09:58.785Z,31.90
2019-05-18T04:10:58.809Z,33.50
2019-05-18T04:11:58.835Z,32.50
2019-05-18T04:12:58.800Z,32.60
2019-05-18T04:13:58.809Z,31.70
2019-05-18T04:14:58.816Z,32.20
2019-05-18T04:15:58.813Z,32.40
2019-05-18T04:16:58.821Z,30.90
2019-05-18T04:17:58.827Z,32.20
2019-05-18T04:18:58.836Z,33.20
2019-05-18T04:19:58.830Z,31.40
2019-05-18T04:20:58.845Z,32.00
2019-05-18T04:21:58.856Z,31.40
2019-05-18T04:22:58.860Z,34.20
2019-05-18T04:23:58.863Z,31.60
2019-05-18T04:24:58.870Z,31.90
2019-05-18T04:25:58.878Z,32.80
2019-05-18T04:26:58.882Z,30.30
2019-05-18T04:27:58.886Z,32.30
2019-05-18T04:28:58.904Z,32.10
2019-05-18T04:29:58.903Z,32.00
2019-05-18T04:30:58.913Z,31.20
2019-05-18T04:31:58.923Z,30.50
2019-05-18T04:32:58.921Z,31.40
2019-05-18T04:33:58.923Z,33.90
2019-05-18T04:34:58.930Z,30.10
2019-05-18T04:35:58.935Z,32.10
2019-05-18T04:36:58.942Z,32.40
2019-05-18T04:37:58.950Z,32.10
2019-05-18T04:38:58.970Z,29.90
2019-05-18T04:39:59.054Z,29.40
2019-05-18T04:40:58.969Z,29.80
2019-05-18T04:41:58.972Z,31.00
2019-05-18T04:42:58.982Z,29.50
2019-05-18T04:43:58.995Z,29.50
2019-05-18T04:44:58.996Z,31.00
2019-05-18T04:45:59.000Z,34.20
2019-05-18T04:46:59.004Z,30.90
2019-05-18T04:47:59.071Z,30.10
2019-05-18T04:48:59.017Z,30.40
2019-05-18T04:50:05.401Z,32.10
2019-05-18T04:50:59.036Z,30.00
2019-05-18T04:51:59.038Z,30.90
2019-05-18T04:52:59.045Z,33.10
2019-05-18T04:53:59.051Z,30.40
2019-05-18T04:54:59.061Z,31.10
2019-05-18T04:55:59.063Z,29.20
2019-05-18T04:56:59.070Z,34.80
2019-05-18T04:57:59.084Z,32.00
2019-05-18T04:58:59.115Z,31.20
2019-05-18T04:59:59.144Z,31.10
2019-05-18T05:00:59.109Z,31.30
2019-05-18T05:01:59.181Z,28.50
2019-05-18T05:02:59.129Z,29.10
2019-05-18T05:03:59.130Z,28.60
2019-05-18T05:04:59.132Z,30.70
2019-05-18T05:05:59.151Z,27.90
2019-05-18T05:06:59.154Z,29.00
2019-05-18T05:07:59.140Z,29.00
2019-05-18T05:08:59.176Z,28.60
2019-05-18T05:09:59.176Z,29.00
2019-05-18T05:10:59.187Z,28.30
2019-05-18T05:11:59.182Z,27.90
2019-05-18T05:12:59.258Z,27.30
2019-05-18T05:13:59.203Z,29.30
2019-05-18T05:14:59.207Z,31.50
2019-05-18T05:15:59.213Z,28.00
2019-05-18T05:16:59.212Z,30.50
2019-05-18T05:17:59.222Z,30.00
2019-05-18T05:18:59.234Z,28.30
2019-05-18T05:19:59.247Z,28.50
2019-05-18T05:20:59.229Z,29.30
2019-05-18T05:21:59.257Z,28.70
2019-05-18T05:22:59.259Z,29.20
2019-05-18T05:23:59.273Z,32.00
2019-05-18T05:24:59.280Z,30.40
2019-05-18T05:25:59.268Z,28.60
2019-05-18T05:26:59.301Z,27.60
2019-05-18T05:27:59.305Z,27.80
2019-05-18T05:28:59.296Z,27.60
2019-05-18T05:29:59.323Z,26.30
2019-05-18T05:30:59.311Z,28.70
2019-05-18T05:31:59.327Z,29.10
2019-05-18T05:32:59.322Z,29.40
2019-05-18T05:33:59.392Z,29.00
2019-05-18T05:34:59.348Z,29.90
2019-05-18T05:35:59.344Z,25.70
2019-05-18T05:36:59.351Z,28.90
2019-05-18T05:37:59.358Z,29.50
2019-05-18T05:38:59.380Z,28.50
2019-05-18T05:39:59.368Z,27.20
2019-05-18T05:40:59.439Z,28.40
2019-05-18T05:41:59.384Z,26.40
2019-05-18T05:42:59.394Z,29.40
2019-05-18T05:43:59.402Z,28.90
2019-05-18T05:44:59.406Z,27.90
2019-05-18T05:45:59.420Z,24.90
2019-05-18T05:46:59.441Z,27.60
2019-05-18T05:47:59.423Z,29.40
2019-05-18T05:48:59.436Z,29.90
2019-05-18T05:49:59.446Z,28.60
2019-05-18T05:50:59.458Z,30.60
2019-05-18T05:51:59.458Z,29.30
2019-05-18T05:52:59.473Z,27.60
2019-05-18T05:53:59.472Z,28.40
2019-05-18T05:54:59.492Z,30.50
2019-05-18T05:55:59.488Z,34.20
2019-05-18T05:56:59.492Z,27.10
2019-05-18T05:57:59.498Z,27.60
2019-05-18T05:58:59.510Z,27.90
2019-05-18T05:59:59.522Z,31.20
2019-05-18T06:00:59.604Z,28.00
2019-05-18T06:01:59.532Z,27.60
2019-05-18T06:02:59.539Z,27.40
2019-05-18T06:03:59.557Z,26.30
2019-05-18T06:04:59.556Z,29.40
2019-05-18T06:05:59.567Z,28.60
2019-05-18T06:06:59.574Z,29.20
2019-05-18T06:07:59.583Z,27.30
2019-05-18T06:08:59.596Z,27.00
2019-05-18T06:09:59.596Z,25.80
2019-05-18T06:10:59.607Z,31.00
2019-05-18T06:11:59.612Z,26.80
2019-05-18T06:12:59.622Z,28.20
2019-05-18T06:13:59.636Z,28.60
2019-05-18T06:14:59.634Z,26.00
2019-05-18T06:15:59.649Z,28.50
2019-05-18T06:16:59.659Z,23.90
2019-05-18T06:17:59.656Z,26.00
2019-05-18T06:18:59.675Z,24.00
2019-05-18T06:19:59.682Z,24.20
2019-05-18T06:20:59.701Z,26.40
2019-05-18T06:21:59.701Z,23.50
2019-05-18T06:22:59.713Z,26.00
2019-05-18T06:23:59.727Z,23.70
2019-05-18T06:24:59.736Z,22.80
2019-05-18T06:25:59.752Z,23.80
2019-05-18T06:26:59.755Z,22.90
2019-05-18T06:27:59.766Z,22.50
2019-05-18T06:28:59.780Z,21.90
2019-05-18T06:29:59.803Z,22.80
2019-05-18T06:30:59.826Z,23.50
2019-05-18T06:31:59.818Z,24.50
2019-05-18T06:32:59.831Z,22.70
2019-05-18T06:33:59.843Z,21.50
2019-05-18T06:34:59.859Z,24.30
2019-05-18T06:35:59.873Z,20.80
2019-05-18T06:36:59.877Z,21.60
2019-05-18T06:37:59.893Z,21.00
2019-05-18T06:38:59.904Z,23.40
2019-05-18T06:39:59.922Z,21.90
2019-05-18T06:40:59.938Z,20.00
2019-05-18T06:41:59.956Z,19.50
2019-05-18T06:42:59.964Z,18.50
2019-05-18T06:43:59.975Z,20.20
2019-05-18T06:44:59.989Z,19.50
2019-05-18T06:46:00.003Z,18.70
2019-05-18T06:47:00.015Z,19.30
2019-05-18T06:48:00.036Z,18.90
2019-05-18T06:49:00.053Z,19.10
2019-05-18T06:50:00.056Z,20.30
2019-05-18T06:51:07.114Z,19.20
2019-05-18T06:52:00.085Z,18.90
2019-05-18T06:53:00.104Z,18.50
2019-05-18T06:54:00.120Z,19.20
2019-05-18T06:55:00.135Z,19.80
2019-05-18T06:56:00.144Z,19.00
2019-05-18T06:57:00.158Z,20.20
2019-05-18T06:58:00.176Z,19.10
2019-05-18T06:59:00.184Z,19.00
2019-05-18T07:00:00.216Z,20.50
2019-05-18T07:01:00.232Z,20.70
2019-05-18T07:02:00.233Z,30.50
2019-05-18T07:03:00.251Z,19.00
2019-05-18T07:04:00.275Z,17.80
2019-05-18T07:05:00.273Z,18.00
2019-05-18T07:06:00.300Z,18.30
2019-05-18T07:07:00.310Z,18.40
2019-05-18T07:08:00.328Z,18.50
2019-05-18T07:09:00.337Z,17.60
2019-05-18T07:10:00.353Z,17.60
2019-05-18T07:11:00.359Z,17.40
2019-05-18T07:12:00.379Z,17.50
2019-05-18T07:13:00.400Z,17.50
2019-05-18T07:14:00.417Z,17.70
2019-05-18T07:15:00.713Z,16.70
2019-05-18T07:16:00.447Z,16.90
2019-05-18T07:17:00.457Z,15.90
2019-05-18T07:18:00.480Z,16.30
2019-05-18T07:19:00.486Z,15.50
2019-05-18T07:20:00.504Z,16.00
2019-05-18T07:21:00.519Z,15.80
2019-05-18T07:22:00.542Z,14.90
2019-05-18T07:23:00.561Z,15.40
2019-05-18T07:24:00.605Z,16.20
2019-05-18T07:25:00.590Z,15.40
2019-05-18T07:26:00.593Z,15.00
2019-05-18T07:27:00.609Z,15.50
2019-05-18T07:28:00.635Z,15.30
2019-05-18T07:29:00.645Z,15.40
2019-05-18T07:30:00.670Z,14.60
2019-05-18T07:31:00.677Z,15.90
2019-05-18T07:32:00.698Z,15.80
2019-05-18T07:33:00.713Z,17.70
2019-05-18T07:34:00.739Z,15.50
2019-05-18T07:35:00.743Z,15.60
2019-05-18T07:36:00.755Z,14.80
2019-05-18T07:37:00.764Z,15.20
2019-05-18T07:38:00.779Z,14.00
2019-05-18T07:39:00.802Z,15.40
2019-05-18T07:40:00.820Z,14.80
2019-05-18T07:41:00.895Z,14.40
2019-05-18T07:42:00.871Z,14.30
2019-05-18T07:43:00.878Z,14.10
2019-05-18T07:44:00.881Z,13.60
2019-05-18T07:45:00.905Z,14.10
2019-05-18T07:46:00.928Z,14.00
2019-05-18T07:47:00.930Z,13.90
2019-05-18T07:49:00.962Z,13.80
2019-05-18T07:50:00.989Z,13.20
2019-05-18T07:51:01.002Z,12.10
2019-05-18T07:52:01.020Z,12.50
2019-05-18T07:53:01.027Z,12.70
2019-05-18T07:54:01.051Z,12.40
2019-05-18T07:55:01.065Z,13.10
2019-05-18T07:56:01.080Z,12.70
2019-05-18T07:57:01.106Z,12.60
2019-05-18T07:58:01.118Z,12.40
2019-05-18T07:59:01.130Z,13.40
2019-05-18T08:00:01.142Z,12.20
2019-05-18T08:01:01.160Z,11.90
2019-05-18T08:02:01.229Z,13.20
2019-05-18T08:03:01.224Z,13.20
2019-05-18T08:04:01.219Z,13.50
2019-05-18T08:05:01.222Z,13.50
2019-05-18T08:06:01.327Z,12.90
2019-05-18T08:07:01.258Z,12.10
2019-05-18T08:08:01.287Z,12.10
2019-05-18T08:09:01.305Z,11.70
2019-05-18T08:10:01.306Z,12.80
2019-05-18T08:11:01.324Z,12.10
2019-05-18T08:12:01.342Z,11.00
2019-05-18T08:13:01.356Z,10.70
2019-05-18T08:14:01.382Z,10.40
2019-05-18T08:15:01.416Z,10.60
2019-05-18T08:16:01.450Z,10.50
2019-05-18T08:17:01.431Z,10.60
2019-05-18T08:18:01.442Z,10.90
2019-05-18T08:19:01.471Z,10.70
2019-05-18T08:20:01.483Z,10.70
2019-05-18T08:21:01.494Z,10.10
2019-05-18T08:22:01.511Z,10.20
2019-05-18T08:23:01.527Z,11.10
2019-05-18T08:24:01.550Z,11.10
2019-05-18T08:25:01.573Z,11.60
2019-05-18T08:26:01.609Z,11.10
2019-05-18T08:27:02.443Z,11.00
2019-05-18T08:28:01.625Z,11.90
2019-05-18T08:29:01.633Z,11.80
2019-05-18T08:30:01.680Z,10.60
2019-05-18T08:31:01.664Z,10.90
2019-05-18T08:32:01.685Z,10.70
2019-05-18T08:33:01.857Z,10.90
2019-05-18T08:34:01.740Z,11.60
2019-05-18T08:35:01.733Z,12.60
2019-05-18T08:36:01.778Z,12.40
2019-05-18T08:37:01.782Z,11.90
2019-05-18T08:38:01.813Z,12.40
2019-05-18T08:39:01.890Z,11.70
2019-05-18T08:40:01.821Z,12.20
2019-05-18T08:41:01.857Z,12.20
2019-05-18T08:42:01.848Z,11.70
2019-05-18T08:43:01.913Z,11.10
2019-05-18T08:44:01.895Z,12.00
2019-05-18T08:45:01.894Z,11.70
2019-05-18T08:46:01.976Z,10.50
2019-05-18T08:47:01.970Z,11.20
2019-05-18T08:48:01.971Z,11.10
2019-05-18T08:49:01.981Z,10.40
2019-05-18T08:50:01.994Z,9.80
2019-05-18T08:51:02.010Z,10.30
2019-05-18T08:52:08.242Z,11.10
2019-05-18T08:53:02.043Z,10.10
2019-05-18T08:54:02.057Z,8.50
2019-05-18T08:55:02.239Z,8.20
2019-05-18T08:56:02.094Z,8.10
2019-05-18T08:57:02.112Z,8.00
2019-05-18T08:58:02.127Z,7.20
2019-05-18T08:59:02.145Z,7.10
2019-05-18T09:00:02.178Z,7.60
2019-05-18T09:01:02.179Z,8.20
2019-05-18T09:02:02.195Z,7.20
2019-05-18T09:03:02.212Z,8.00
2019-05-18T09:04:02.228Z,8.40
2019-05-18T09:05:04.829Z,8.70
2019-05-18T09:06:02.258Z,8.50
2019-05-18T09:07:02.294Z,9.80
2019-05-18T09:08:02.303Z,8.20
2019-05-18T09:09:02.311Z,8.70
2019-05-18T09:10:02.342Z,7.90
2019-05-18T09:11:02.351Z,7.50
2019-05-18T09:12:02.409Z,8.00
2019-05-18T09:13:02.429Z,7.70
2019-05-18T09:14:02.405Z,7.70
2019-05-18T09:15:02.420Z,8.00
2019-05-18T09:16:02.446Z,8.10
2019-05-18T09:17:02.460Z,8.20
2019-05-18T09:18:04.866Z,7.50
2019-05-18T09:19:02.499Z,7.20
2019-05-18T09:20:02.510Z,7.60
2019-05-18T09:21:02.533Z,6.70
2019-05-18T09:22:02.548Z,7.50
2019-05-18T09:23:02.568Z,8.30
2019-05-18T09:24:02.584Z,8.00
2019-05-18T09:25:02.718Z,8.50
2019-05-18T09:26:02.648Z,7.70
2019-05-18T09:27:02.636Z,8.50
2019-05-18T09:28:02.658Z,7.20
2019-05-18T09:29:02.854Z,6.90
2019-05-18T09:30:02.710Z,6.80
2019-05-18T09:31:02.704Z,7.50
2019-05-18T09:32:02.726Z,6.60
2019-05-18T09:33:02.739Z,6.30
2019-05-18T09:34:02.758Z,6.90
2019-05-18T09:35:02.774Z,7.20
2019-05-18T09:36:02.797Z,7.60
2019-05-18T09:37:02.813Z,7.50
2019-05-18T09:38:02.830Z,6.80
2019-05-18T09:39:02.875Z,7.00
2019-05-18T09:40:02.871Z,7.10
2019-05-18T09:41:02.905Z,6.80
2019-05-18T09:42:02.908Z,21.70
2019-05-18T09:43:02.917Z,8.60
2019-05-18T09:44:02.942Z,7.00
2019-05-18T09:45:02.957Z,7.20
2019-05-18T09:46:02.968Z,7.70
2019-05-18T09:47:02.989Z,7.30
2019-05-18T09:48:03.052Z,7.30
2019-05-18T09:49:03.029Z,6.70
2019-05-18T09:50:03.050Z,7.80
2019-05-18T09:51:03.064Z,8.70
2019-05-18T09:52:03.140Z,7.70
2019-05-18T09:53:03.110Z,6.70
2019-05-18T09:54:03.126Z,6.50
2019-05-18T09:55:03.146Z,6.80
2019-05-18T09:56:03.172Z,7.20
2019-05-18T09:57:03.180Z,7.60
2019-05-18T09:58:03.196Z,8.20
2019-05-18T09:59:03.206Z,7.90
2019-05-18T10:00:03.264Z,11.70
2019-05-18T10:01:03.250Z,8.00
2019-05-18T10:02:03.258Z,7.70
2019-05-18T10:03:03.277Z,6.50
2019-05-18T10:04:03.310Z,7.10
2019-05-18T10:05:03.323Z,6.80
2019-05-18T10:06:03.334Z,8.20
2019-05-18T10:07:03.360Z,7.70
2019-05-18T10:08:03.416Z,6.50
2019-05-18T10:09:03.397Z,7.70
2019-05-18T10:10:03.421Z,8.10
2019-05-18T10:11:03.421Z,7.20
2019-05-18T10:12:03.457Z,6.40
2019-05-18T10:13:03.470Z,6.90
2019-05-18T10:14:03.476Z,5.70
2019-05-18T10:15:03.545Z,6.30
2019-05-18T10:16:03.516Z,5.90
2019-05-18T10:17:03.632Z,5.40
2019-05-18T10:18:03.545Z,5.20
2019-05-18T10:19:03.565Z,4.40
2019-05-18T10:20:03.589Z,3.40
2019-05-18T10:21:03.756Z,3.30
2019-05-18T10:22:03.617Z,4.90
2019-05-18T10:23:12.331Z,4.70
2019-05-18T10:24:03.645Z,4.00
2019-05-18T10:25:03.675Z,4.60
2019-05-18T10:26:03.716Z,4.60
2019-05-18T10:27:03.715Z,6.30
2019-05-18T10:28:03.731Z,6.00
2019-05-18T10:29:03.733Z,6.70
2019-05-18T10:30:03.765Z,5.90
2019-05-18T10:31:03.801Z,5.90
2019-05-18T10:32:03.808Z,7.00
2019-05-18T10:33:03.895Z,7.60
2019-05-18T10:34:03.843Z,6.90
2019-05-18T10:35:03.855Z,6.40
2019-05-18T10:36:03.877Z,6.90
2019-05-18T10:37:03.902Z,5.30
2019-05-18T10:38:03.932Z,6.00
2019-05-18T10:39:03.937Z,6.10
2019-05-18T10:40:03.948Z,6.50
2019-05-18T10:41:03.958Z,6.50
2019-05-18T10:42:03.977Z,7.30
2019-05-18T10:43:03.997Z,7.40
2019-05-18T10:44:04.019Z,8.20
2019-05-18T10:45:04.025Z,6.90
2019-05-18T10:46:04.045Z,7.00
2019-05-18T10:47:04.065Z,7.70
2019-05-18T10:48:04.087Z,7.70
2019-05-18T10:49:04.097Z,8.20
2019-05-18T10:50:04.125Z,8.40
2019-05-18T10:51:05.693Z,7.50
2019-05-18T10:52:04.154Z,8.10
2019-05-18T10:53:04.169Z,7.90
2019-05-18T10:54:04.185Z,8.10
2019-05-18T10:55:04.204Z,8.20
2019-05-18T10:56:04.307Z,8.10
2019-05-18T10:57:04.270Z,7.80
2019-05-18T10:58:04.266Z,6.90
2019-05-18T10:59:04.361Z,7.40
2019-05-18T11:00:04.328Z,6.80
2019-05-18T11:01:04.391Z,7.20
2019-05-18T11:02:04.327Z,7.90
2019-05-18T11:04:04.370Z,7.70
2019-05-18T11:05:04.402Z,8.20
2019-05-18T11:06:04.396Z,7.70
2019-05-18T11:07:04.411Z,7.60
2019-05-18T11:08:04.439Z,7.30
2019-05-18T11:09:04.489Z,7.10
2019-05-18T11:10:04.470Z,7.30
2019-05-18T11:11:04.524Z,7.50
2019-05-18T11:12:04.513Z,7.60
2019-05-18T11:13:04.532Z,6.60
2019-05-18T11:14:04.538Z,6.60
2019-05-18T11:15:04.566Z,7.30
2019-05-18T11:16:04.607Z,6.20
2019-05-18T11:17:04.626Z,5.90
2019-05-18T11:18:04.614Z,5.60
2019-05-18T11:19:04.635Z,6.00
2019-05-18T11:20:04.648Z,5.90
2019-05-18T11:21:04.671Z,6.00
2019-05-18T11:22:04.686Z,22.70
2019-05-18T11:23:04.710Z,6.00
2019-05-18T11:24:04.728Z,13.10
2019-05-18T11:25:04.779Z,4.90
2019-05-18T11:26:04.841Z,5.30
2019-05-18T11:27:04.789Z,5.30
2019-05-18T11:28:04.816Z,5.00
2019-05-18T11:29:04.826Z,6.10
2019-05-18T11:30:04.921Z,5.60
2019-05-18T11:31:04.863Z,5.90
2019-05-18T11:32:04.884Z,32.30
2019-05-18T11:33:04.934Z,15.00
2019-05-18T11:34:04.927Z,4.80
2019-05-18T11:35:04.942Z,5.10
2019-05-18T11:36:04.964Z,10.60
2019-05-18T11:37:04.985Z,6.80
2019-05-18T11:38:05.001Z,4.60
2019-05-18T11:39:05.032Z,5.10
2019-05-18T11:40:05.063Z,10.40
2019-05-18T11:41:05.157Z,6.80
2019-05-18T11:42:05.086Z,5.30
2019-05-18T11:43:05.118Z,5.10
2019-05-18T11:44:05.118Z,4.90
2019-05-18T11:45:05.146Z,4.60
2019-05-18T11:46:05.165Z,5.90
2019-05-18T11:47:05.182Z,4.70
2019-05-18T11:48:05.221Z,6.70
2019-05-18T11:49:05.226Z,5.30
2019-05-18T11:50:05.235Z,4.90
2019-05-18T11:51:05.415Z,6.20
2019-05-18T11:52:05.278Z,8.10
2019-05-18T11:53:05.292Z,5.20
2019-05-18T11:54:05.338Z,6.50
2019-05-18T11:55:05.339Z,6.70
2019-05-18T11:56:05.356Z,6.30
2019-05-18T11:57:05.379Z,6.20
2019-05-18T11:58:05.397Z,6.50
2019-05-18T11:59:05.460Z,6.40
2019-05-18T12:00:05.439Z,6.80
2019-05-18T12:01:05.547Z,7.80
2019-05-18T12:02:05.481Z,6.20
2019-05-18T12:03:05.498Z,5.90
2019-05-18T12:04:05.508Z,5.50
2019-05-18T12:05:05.518Z,5.50
2019-05-18T12:06:05.540Z,5.70
2019-05-18T12:07:05.555Z,5.20
2019-05-18T12:08:05.608Z,4.50
2019-05-18T12:09:05.601Z,4.90
2019-05-18T12:10:05.622Z,4.90
2019-05-18T12:11:05.631Z,4.30
2019-05-18T12:12:05.647Z,4.40
2019-05-18T12:13:05.679Z,4.50
2019-05-18T12:14:05.702Z,4.10
2019-05-18T12:15:05.716Z,3.30
2019-05-18T12:16:05.737Z,3.00
2019-05-18T12:17:05.743Z,5.00
2019-05-18T12:18:05.877Z,5.50
2019-05-18T12:19:05.783Z,4.00
2019-05-18T12:20:05.798Z,4.10
2019-05-18T12:21:05.832Z,4.90
2019-05-18T12:22:05.837Z,3.70
2019-05-18T12:23:08.247Z,4.30
2019-05-18T12:24:14.845Z,3.90
2019-05-18T12:25:05.885Z,4.50
2019-05-18T12:26:05.904Z,4.20
2019-05-18T12:27:05.919Z,4.30
2019-05-18T12:28:05.966Z,4.90
2019-05-18T12:29:05.954Z,4.90
2019-05-18T12:30:05.965Z,4.40
2019-05-18T12:31:05.987Z,6.10
2019-05-18T12:32:06.005Z,4.40
2019-05-18T12:33:06.032Z,6.10
2019-05-18T12:34:06.039Z,4.60
2019-05-18T12:35:06.067Z,4.50
2019-05-18T12:36:06.118Z,3.60
2019-05-18T12:37:06.089Z,4.30
2019-05-18T12:38:06.103Z,3.40
2019-05-18T12:39:06.133Z,3.00
2019-05-18T12:40:06.151Z,3.20
2019-05-18T12:41:06.151Z,5.30
2019-05-18T12:42:07.695Z,3.70
2019-05-18T12:43:06.214Z,4.50
2019-05-18T12:44:06.201Z,3.70
2019-05-18T12:45:06.220Z,3.00
2019-05-18T12:46:06.238Z,2.80
2019-05-18T12:47:06.265Z,3.70
2019-05-18T12:48:06.272Z,4.10
2019-05-18T12:49:06.288Z,2.30
2019-05-18T12:50:06.305Z,3.00
2019-05-18T12:51:06.328Z,2.70
2019-05-18T12:52:06.342Z,1.60
2019-05-18T12:53:06.371Z,2.10
2019-05-18T12:54:06.375Z,2.10
2019-05-18T12:55:06.401Z,1.70
2019-05-18T12:56:06.404Z,1.90
2019-05-18T12:57:06.438Z,1.70
2019-05-18T12:58:06.451Z,2.30
2019-05-18T12:59:06.467Z,3.30
2019-05-18T13:00:06.479Z,3.20
2019-05-18T13:01:06.494Z,2.20
2019-05-18T13:02:06.519Z,2.50
2019-05-18T13:03:06.538Z,2.10